createdAt,value
2019-03-09T00:01:33.566Z,101716.75
2019-03-09T00:04:03.057Z,101728.01
2019-03-09T00:06:32.407Z,101733.64
2019-03-09T00:09:01.729Z,101746.19
2019-03-09T00:11:31.069Z,101758.30
2019-03-09T00:14:01.447Z,101777.66
2019-03-09T00:16:31.189Z,101782.42
2019-03-09T00:19:00.599Z,101779.33
2019-03-09T00:21:29.865Z,101783.63
2019-03-09T00:24:20.802Z,101777.09
2019-03-09T00:26:57.399Z,101777.51
2019-03-09T00:29:48.724Z,101784.38
2019-03-09T00:32:20.042Z,101796.45
2019-03-09T00:34:49.388Z,101799.47
2019-03-09T00:37:18.702Z,101798.59
2019-03-09T00:39:48.034Z,101803.73
2019-03-09T00:42:17.394Z,101799.78
2019-03-09T00:44:46.768Z,101803.68
2019-03-09T00:47:16.087Z,101791.55
2019-03-09T00:49:45.427Z,101791.55
2019-03-09T00:52:14.759Z,101791.97
2019-03-09T00:54:44.076Z,101793.69
2019-03-09T00:57:13.414Z,101785.42
2019-03-09T00:59:42.734Z,101785.84
2019-03-09T01:02:12.065Z,101781.95
2019-03-09T01:04:41.397Z,101794.06
2019-03-09T01:07:10.736Z,101794.08
2019-03-09T01:09:40.045Z,101788.86
2019-03-09T01:12:09.371Z,101788.45
2019-03-09T01:14:38.713Z,101798.34
2019-03-09T01:17:08.057Z,101798.33
2019-03-09T01:19:37.416Z,101795.28
2019-03-09T01:22:06.860Z,101803.91
2019-03-09T01:24:36.200Z,101811.68
2019-03-09T01:27:07.011Z,101815.16
2019-03-09T01:29:36.349Z,101799.19
2019-03-09T01:32:05.700Z,101795.67
2019-03-09T01:34:35.053Z,101789.67
2019-03-09T01:37:04.372Z,101791.84
2019-03-09T01:39:33.699Z,101790.16
2019-03-09T01:42:03.062Z,101785.42
2019-03-09T01:44:32.353Z,101785.50
2019-03-09T01:47:01.690Z,101787.70
2019-03-09T01:49:31.019Z,101780.42
2019-03-09T01:52:02.683Z,101783.95
2019-03-09T01:54:32.012Z,101794.41
2019-03-09T01:57:01.369Z,101797.56
2019-03-09T01:59:30.695Z,101796.33
2019-03-09T02:02:00.036Z,101787.80
2019-03-09T02:04:29.378Z,101783.55
2019-03-09T02:06:58.700Z,101776.70
2019-03-09T02:09:28.030Z,101776.36
2019-03-09T02:11:57.372Z,101774.69
2019-03-09T02:14:26.722Z,101782.59
2019-03-09T02:16:56.087Z,101773.99
2019-03-09T02:19:25.441Z,101765.78
2019-03-09T02:21:54.746Z,101755.45
2019-03-09T02:24:24.099Z,101754.59
2019-03-09T02:26:53.416Z,101742.48
2019-03-09T02:29:22.722Z,101741.63
2019-03-09T02:31:52.076Z,101732.11
2019-03-09T02:34:21.477Z,101738.16
2019-03-09T02:36:50.848Z,101742.05
2019-03-09T02:39:33.932Z,101748.98
2019-03-09T02:42:03.275Z,101758.50
2019-03-09T02:44:32.590Z,101751.58
2019-03-09T02:47:01.953Z,101750.71
2019-03-09T02:49:31.352Z,101749.84
2019-03-09T02:52:00.694Z,101744.64
2019-03-09T02:54:30.031Z,101737.72
2019-03-09T02:56:59.369Z,101732.97
2019-03-09T02:59:28.679Z,101726.48
2019-03-09T03:02:23.317Z,101719.55
2019-03-09T03:04:52.660Z,101726.45
2019-03-09T03:07:21.951Z,101730.67
2019-03-09T03:09:51.298Z,101737.91
2019-03-09T03:12:20.637Z,101742.15
2019-03-09T03:14:49.947Z,101745.48
2019-03-09T03:17:19.309Z,101756.19
2019-03-09T03:19:48.652Z,101763.06
2019-03-09T03:22:18.000Z,101776.37
2019-03-09T03:24:47.335Z,101785.81
2019-03-09T03:27:16.736Z,101791.80
2019-03-09T03:29:46.043Z,101799.05
2019-03-09T03:32:15.395Z,101812.38
2019-03-09T03:34:44.719Z,101808.44
2019-03-09T03:37:14.048Z,101815.30
2019-03-09T03:39:43.387Z,101817.83
2019-03-09T03:42:12.701Z,101812.17
2019-03-09T03:44:45.341Z,101807.80
2019-03-09T03:47:17.814Z,101795.67
2019-03-09T03:49:47.155Z,101791.28
2019-03-09T03:52:16.495Z,101768.77
2019-03-09T03:54:45.823Z,101764.84
2019-03-09T03:57:15.170Z,101761.75
2019-03-09T03:59:44.523Z,101784.70
2019-03-09T04:02:13.863Z,101791.95
2019-03-09T04:04:43.223Z,101794.97
2019-03-09T04:07:12.634Z,101790.58
2019-03-09T04:09:42.164Z,101796.61
2019-03-09T04:12:11.525Z,101798.30
2019-03-09T04:14:40.850Z,101793.91
2019-03-09T04:17:10.220Z,101798.64
2019-03-09T04:19:39.569Z,101779.09
2019-03-09T04:22:08.965Z,101786.88
2019-03-09T04:24:39.744Z,101790.77
2019-03-09T04:27:10.164Z,101786.37
2019-03-09T04:29:39.506Z,101767.27
2019-03-09T04:32:08.828Z,101766.81
2019-03-09T04:34:38.199Z,101764.21
2019-03-09T04:37:07.512Z,101761.17
2019-03-09T04:39:36.871Z,101758.57
2019-03-09T04:42:06.217Z,101736.48
2019-03-09T04:44:35.569Z,101731.23
2019-03-09T04:47:04.909Z,101739.91
2019-03-09T04:49:34.213Z,101732.95
2019-03-09T04:52:03.617Z,101723.38
2019-03-09T04:54:32.936Z,101729.88
2019-03-09T04:57:02.255Z,101728.13
2019-03-09T04:59:31.593Z,101720.75
2019-03-09T05:02:00.931Z,101725.51
2019-03-09T05:04:50.112Z,101721.61
2019-03-09T05:08:18.314Z,101708.11
2019-03-09T05:11:06.656Z,101703.72
2019-03-09T05:13:55.893Z,101699.31
2019-03-09T05:16:25.224Z,101701.48
2019-03-09T05:18:54.578Z,101715.34
2019-03-09T05:21:23.933Z,101755.13
2019-03-09T05:23:53.259Z,101755.50
2019-03-09T05:26:22.592Z,101755.47
2019-03-09T05:28:51.937Z,101746.73
2019-03-09T05:31:22.378Z,101743.64
2019-03-09T05:33:51.714Z,101750.06
2019-03-09T05:36:21.038Z,101760.02
2019-03-09T05:38:51.264Z,101743.53
2019-03-09T05:41:20.622Z,101763.39
2019-03-09T05:43:49.979Z,101753.80
2019-03-09T05:46:19.304Z,101745.11
2019-03-09T05:48:48.659Z,101736.81
2019-03-09T05:51:17.992Z,101736.31
2019-03-09T05:53:47.304Z,101752.72
2019-03-09T05:56:16.687Z,101744.03
2019-03-09T05:58:45.999Z,101750.95
2019-03-09T06:01:15.351Z,101738.39
2019-03-09T06:03:44.706Z,101740.07
2019-03-09T06:06:18.670Z,101752.61
2019-03-09T06:08:49.308Z,101750.39
2019-03-09T06:11:18.672Z,101753.41
2019-03-09T06:13:47.991Z,101746.91
2019-03-09T06:16:17.366Z,101742.95
2019-03-09T06:18:46.684Z,101735.14
2019-03-09T06:21:16.030Z,101729.08
2019-03-09T06:23:45.400Z,101731.30
2019-03-09T06:26:14.773Z,101735.59
2019-03-09T06:28:44.113Z,101740.77
2019-03-09T06:31:13.445Z,101733.40
2019-03-09T06:33:44.492Z,101732.96
2019-03-09T06:37:05.915Z,101733.40
2019-03-09T06:39:50.570Z,101738.58
2019-03-09T06:42:33.220Z,101745.08
2019-03-09T06:45:02.566Z,101759.39
2019-03-09T06:47:31.897Z,101783.19
2019-03-09T06:50:01.264Z,101769.67
2019-03-09T06:52:30.598Z,101775.30
2019-03-09T06:55:00.963Z,101775.71
2019-03-09T06:57:31.282Z,101767.08
2019-03-09T07:00:00.633Z,101767.99
2019-03-09T07:02:29.977Z,101777.98
2019-03-09T07:04:59.322Z,101790.11
2019-03-09T07:07:28.650Z,101789.19
2019-03-09T07:09:58.016Z,101788.75
2019-03-09T07:12:27.358Z,101794.31
2019-03-09T07:15:25.642Z,101799.05
2019-03-09T07:18:06.574Z,101824.59
2019-03-09T07:20:35.966Z,101813.66
2019-03-09T07:23:05.319Z,101820.97
2019-03-09T07:25:34.697Z,101804.89
2019-03-09T07:28:08.717Z,101803.09
2019-03-09T07:30:38.079Z,101819.92
2019-03-09T07:33:09.410Z,101799.95
2019-03-09T07:35:38.759Z,101792.98
2019-03-09T07:38:08.181Z,101792.53
2019-03-09T07:40:37.472Z,101782.48
2019-03-09T07:43:06.879Z,101766.40
2019-03-09T07:45:36.202Z,101771.11
2019-03-09T07:48:05.520Z,101776.69
2019-03-09T07:50:34.934Z,101769.72
2019-03-09T07:53:04.260Z,101772.70
2019-03-09T07:55:33.596Z,101785.63
2019-03-09T07:58:04.627Z,101787.26
2019-03-09T08:00:33.972Z,101785.37
2019-03-09T08:03:03.407Z,101777.05
2019-03-09T08:05:34.882Z,101766.14
2019-03-09T08:08:04.189Z,101758.23
2019-03-09T08:10:33.500Z,101766.88
2019-03-09T08:13:02.853Z,101789.39
2019-03-09T08:15:32.234Z,101783.30
2019-03-09T08:18:01.517Z,101800.16
2019-03-09T08:20:30.916Z,101787.56
2019-03-09T08:23:00.419Z,101805.73
2019-03-09T08:25:29.747Z,101803.09
2019-03-09T08:27:59.121Z,101821.77
2019-03-09T08:30:28.443Z,101827.39
2019-03-09T08:32:57.992Z,101845.02
2019-03-09T08:35:27.317Z,101833.22
2019-03-09T08:37:56.712Z,101849.29
2019-03-09T08:40:26.005Z,101853.05
2019-03-09T08:42:55.370Z,101856.48
2019-03-09T08:45:24.831Z,101859.50
2019-03-09T08:47:55.199Z,101867.73
2019-03-09T08:50:24.631Z,101865.13
2019-03-09T08:52:53.949Z,101868.98
2019-03-09T08:55:23.304Z,101859.42
2019-03-09T08:57:52.768Z,101881.05
2019-03-09T09:00:27.102Z,101870.63
2019-03-09T09:02:56.530Z,101875.81
2019-03-09T09:05:25.999Z,101876.64
2019-03-09T09:07:55.490Z,101890.97
2019-03-09T09:10:24.887Z,101882.69
2019-03-09T09:12:54.354Z,101883.51
2019-03-09T09:15:23.709Z,101870.45
2019-03-09T09:17:53.070Z,101885.58
2019-03-09T09:20:22.795Z,101877.27
2019-03-09T09:22:52.166Z,101898.11
2019-03-09T09:25:21.595Z,101891.15
2019-03-09T09:27:52.088Z,101885.85
2019-03-09T09:30:23.623Z,101881.44
2019-03-09T09:32:53.070Z,101877.09
2019-03-09T09:35:22.611Z,101871.38
2019-03-09T09:37:52.206Z,101878.98
2019-03-09T09:40:22.661Z,101859.34
2019-03-09T09:42:52.121Z,101865.73
2019-03-09T09:45:21.672Z,101866.47
2019-03-09T09:47:51.010Z,101885.89
2019-03-09T09:50:20.445Z,101889.68
2019-03-09T09:52:49.801Z,101889.97
2019-03-09T09:55:19.173Z,101907.62
2019-03-09T09:57:48.541Z,101922.81
2019-03-09T10:00:22.534Z,101918.55
2019-03-09T10:02:51.960Z,101922.55
2019-03-09T10:05:21.708Z,101927.86
2019-03-09T10:07:51.037Z,101925.84
2019-03-09T10:10:20.419Z,101938.97
2019-03-09T10:12:49.891Z,101949.98
2019-03-09T10:15:21.353Z,101960.92
2019-03-09T10:17:50.682Z,101972.64
2019-03-09T10:20:20.025Z,101969.63
2019-03-09T10:22:49.389Z,101966.64
2019-03-09T10:25:18.852Z,101969.23
2019-03-09T10:27:48.199Z,101970.93
2019-03-09T10:30:19.073Z,101960.41
2019-03-09T10:32:48.429Z,101975.61
2019-03-09T10:35:17.801Z,101942.14
2019-03-09T10:37:47.160Z,101948.69
2019-03-09T10:40:16.798Z,101948.24
2019-03-09T10:42:46.187Z,101947.36
2019-03-09T10:45:15.702Z,101948.66
2019-03-09T10:47:45.060Z,101949.96
2019-03-09T10:50:14.708Z,101953.04
2019-03-09T10:52:44.077Z,101947.83
2019-03-09T10:55:15.561Z,101958.25
2019-03-09T10:57:45.196Z,101949.61
2019-03-09T11:00:20.055Z,101960.77
2019-03-09T11:02:49.420Z,101955.02
2019-03-09T11:05:18.756Z,101994.45
2019-03-09T11:07:48.109Z,101993.03
2019-03-09T11:10:17.441Z,101979.97
2019-03-09T11:12:46.805Z,101999.87
2019-03-09T11:15:16.173Z,102007.20
2019-03-09T11:17:45.543Z,101993.27
2019-03-09T11:20:15.136Z,102007.55
2019-03-09T11:22:44.522Z,102013.98
2019-03-09T11:25:14.024Z,101998.31
2019-03-09T11:27:43.353Z,101993.92
2019-03-09T11:30:18.106Z,101983.11
2019-03-09T11:32:47.457Z,101977.45
2019-03-09T11:35:16.817Z,101976.05
2019-03-09T11:37:46.175Z,101980.26
2019-03-09T11:40:15.858Z,101981.89
2019-03-09T11:42:45.287Z,101990.36
2019-03-09T11:45:14.876Z,102007.57
2019-03-09T11:47:44.222Z,101996.89
2019-03-09T11:50:14.372Z,102005.89
2019-03-09T11:52:43.769Z,102001.06
2019-03-09T11:55:13.255Z,101993.65
2019-03-09T11:57:42.579Z,101994.80
2019-03-09T12:00:12.992Z,101996.45
2019-03-09T12:02:42.330Z,101989.89
2019-03-09T12:05:11.660Z,101996.36
2019-03-09T12:07:41.011Z,102004.79
2019-03-09T12:10:19.483Z,101995.05
2019-03-09T12:12:48.796Z,101991.73
2019-03-09T12:15:18.355Z,101988.48
2019-03-09T12:17:47.687Z,101984.30
2019-03-09T12:20:21.622Z,101977.73
2019-03-09T12:22:50.977Z,101980.00
2019-03-09T12:25:24.175Z,101971.75
2019-03-09T12:27:53.629Z,101984.30
2019-03-09T12:30:22.967Z,101978.69
2019-03-09T12:32:52.409Z,101978.22
2019-03-09T12:35:21.725Z,101973.85
2019-03-09T12:37:51.080Z,101994.64
2019-03-09T12:40:20.410Z,101970.38
2019-03-09T12:42:49.818Z,101970.73
2019-03-09T12:45:19.088Z,101979.15
2019-03-09T12:47:48.429Z,101979.15
2019-03-09T12:50:18.506Z,101966.02
2019-03-09T12:52:47.873Z,101957.91
2019-03-09T12:55:17.225Z,101948.84
2019-03-09T12:57:46.625Z,101941.11
2019-03-09T13:00:17.690Z,101951.56
2019-03-09T13:02:47.022Z,101958.16
2019-03-09T13:05:17.339Z,101975.95
2019-03-09T13:07:46.653Z,101982.89
2019-03-09T13:10:16.333Z,101984.20
2019-03-09T13:12:45.799Z,101966.88
2019-03-09T13:15:15.886Z,101964.47
2019-03-09T13:17:45.340Z,101964.38
2019-03-09T13:20:14.795Z,101959.70
2019-03-09T13:22:44.140Z,101961.14
2019-03-09T13:25:13.636Z,101966.56
2019-03-09T13:27:43.008Z,101966.56
2019-03-09T13:30:14.713Z,101965.73
2019-03-09T13:32:44.064Z,101976.77
2019-03-09T13:35:13.640Z,101977.88
2019-03-09T13:37:42.999Z,101981.14
2019-03-09T13:40:12.670Z,101973.10
2019-03-09T13:42:42.041Z,101977.36
2019-03-09T13:45:12.123Z,101977.36
2019-03-09T13:47:41.467Z,101967.91
2019-03-09T13:50:11.436Z,101967.91
2019-03-09T13:52:40.776Z,101973.38
2019-03-09T13:55:12.448Z,101972.55
2019-03-09T13:57:41.787Z,101966.98
2019-03-09T14:00:12.509Z,101964.52
2019-03-09T14:02:41.875Z,101951.63
2019-03-09T14:05:11.419Z,101954.78
2019-03-09T14:07:40.735Z,101954.44
2019-03-09T14:10:10.866Z,101957.66
2019-03-09T14:12:40.190Z,101961.23
2019-03-09T14:15:11.406Z,101967.34
2019-03-09T14:17:40.751Z,101970.13
2019-03-09T14:20:11.278Z,101986.26
2019-03-09T14:22:40.641Z,101990.34
2019-03-09T14:25:10.243Z,101990.44
2019-03-09T14:27:39.611Z,101998.42
2019-03-09T14:30:10.816Z,102009.41
2019-03-09T14:32:40.159Z,102015.12
2019-03-09T14:35:09.511Z,102018.62
2019-03-09T14:37:41.142Z,102039.75
2019-03-09T14:40:11.002Z,102039.75
2019-03-09T14:42:40.328Z,102035.81
2019-03-09T14:45:13.171Z,102031.66
2019-03-09T14:47:42.529Z,102019.89
2019-03-09T14:50:12.097Z,102015.56
2019-03-09T14:52:41.442Z,102015.56
2019-03-09T14:55:10.904Z,102018.70
2019-03-09T14:57:40.281Z,102020.45
2019-03-09T15:00:12.880Z,102020.45
2019-03-09T15:02:42.220Z,102022.27
2019-03-09T15:05:11.550Z,102023.22
2019-03-09T15:07:40.922Z,102019.38
2019-03-09T15:10:10.656Z,102023.37
2019-03-09T15:12:40.104Z,102026.01
2019-03-09T15:15:10.593Z,102013.98
2019-03-09T15:17:40.030Z,102023.61
2019-03-09T15:20:11.297Z,102034.42
2019-03-09T15:22:40.718Z,102041.48
2019-03-09T15:25:10.884Z,102041.48
2019-03-09T15:27:40.297Z,102046.75
2019-03-09T15:30:11.922Z,102055.02
2019-03-09T15:32:41.271Z,102058.20
2019-03-09T15:35:11.085Z,102068.20
2019-03-09T15:37:40.598Z,102076.98
2019-03-09T15:40:10.646Z,102085.74
2019-03-09T15:42:40.171Z,102095.40
2019-03-09T15:45:10.916Z,102103.74
2019-03-09T15:47:40.462Z,102122.94
2019-03-09T15:50:10.927Z,102114.37
2019-03-09T15:52:40.461Z,102108.73
2019-03-09T15:55:11.790Z,102113.14
2019-03-09T15:57:41.853Z,102120.11
2019-03-09T16:00:14.864Z,102121.41
2019-03-09T16:02:44.603Z,102123.16
2019-03-09T16:05:14.625Z,102128.37
2019-03-09T16:07:43.942Z,102117.13
2019-03-09T16:10:14.096Z,102108.02
2019-03-09T16:12:43.883Z,102104.60
2019-03-09T16:15:14.778Z,102098.97
2019-03-09T16:17:44.321Z,102108.09
2019-03-09T16:20:15.600Z,102112.89
2019-03-09T16:22:45.601Z,102108.23
2019-03-09T16:25:15.112Z,102102.62
2019-03-09T16:27:45.913Z,102105.73
2019-03-09T16:30:17.414Z,102105.34
2019-03-09T16:32:46.783Z,102104.06
2019-03-09T16:35:16.347Z,102105.44
2019-03-09T16:37:48.330Z,102106.38
2019-03-09T16:40:17.874Z,102109.54
2019-03-09T16:42:47.424Z,102100.52
2019-03-09T16:45:17.014Z,102087.99
2019-03-09T16:47:46.413Z,102099.73
2019-03-09T16:50:16.494Z,102101.53
2019-03-09T16:52:46.070Z,102091.67
2019-03-09T16:55:15.651Z,102095.59
2019-03-09T16:57:45.069Z,102088.72
2019-03-09T17:00:17.117Z,102094.81
2019-03-09T17:02:46.599Z,102085.38
2019-03-09T17:05:16.352Z,102068.13
2019-03-09T17:07:45.813Z,102066.54
2019-03-09T17:10:15.450Z,102064.37
2019-03-09T17:12:44.991Z,102054.02
2019-03-09T17:15:15.330Z,102053.17
2019-03-09T17:17:44.697Z,102051.48
2019-03-09T17:20:14.826Z,102034.14
2019-03-09T17:22:44.314Z,102037.19
2019-03-09T17:25:15.165Z,102037.17
2019-03-09T17:27:44.897Z,102027.61
2019-03-09T17:30:16.462Z,102017.64
2019-03-09T17:32:45.972Z,102010.22
2019-03-09T17:35:15.600Z,101999.41
2019-03-09T17:37:45.050Z,101992.04
2019-03-09T17:40:15.102Z,101989.87
2019-03-09T17:42:44.493Z,101987.28
2019-03-09T17:45:16.547Z,101986.41
2019-03-09T17:47:45.912Z,101986.89
2019-03-09T17:50:15.240Z,101984.31
2019-03-09T17:52:44.605Z,101975.20
2019-03-09T17:55:14.234Z,101981.34
2019-03-09T17:57:43.566Z,101981.78
2019-03-09T18:00:15.654Z,101972.73
2019-03-09T18:02:46.475Z,101963.25
2019-03-09T18:05:15.817Z,101968.92
2019-03-09T18:07:45.145Z,101977.59
2019-03-09T18:10:21.337Z,101967.62
2019-03-09T18:12:50.706Z,101956.38
2019-03-09T18:15:20.050Z,101959.06
2019-03-09T18:17:49.370Z,101960.02
2019-03-09T18:20:19.021Z,101954.89
2019-03-09T18:22:48.363Z,101957.58
2019-03-09T18:25:17.672Z,101943.76
2019-03-09T18:27:47.084Z,101936.00
2019-03-09T18:30:22.860Z,101942.59
2019-03-09T18:32:52.214Z,101943.91
2019-03-09T18:35:23.639Z,101933.61
2019-03-09T18:37:53.006Z,101925.39
2019-03-09T18:40:22.329Z,101936.66
2019-03-09T18:42:51.644Z,101935.80
2019-03-09T18:45:21.018Z,101922.80
2019-03-09T18:47:50.358Z,101923.28
2019-03-09T18:50:19.724Z,101922.80
2019-03-09T18:52:49.081Z,101926.27
2019-03-09T18:55:18.432Z,101924.58
2019-03-09T18:57:49.847Z,101903.34
2019-03-09T19:00:19.307Z,101899.58
2019-03-09T19:02:48.710Z,101876.31
2019-03-09T19:05:18.042Z,101875.53
2019-03-09T19:07:47.473Z,101871.40
2019-03-09T19:10:16.800Z,101878.86
2019-03-09T19:12:48.449Z,101878.05
2019-03-09T19:15:18.187Z,101877.25
2019-03-09T19:17:47.743Z,101874.37
2019-03-09T19:20:17.095Z,101874.56
2019-03-09T19:22:46.460Z,101877.23
2019-03-09T19:25:16.051Z,101880.27
2019-03-09T19:27:45.497Z,101893.78
2019-03-09T19:30:15.710Z,101904.80
2019-03-09T19:32:45.178Z,101897.09
2019-03-09T19:35:14.498Z,101891.52
2019-03-09T19:37:43.824Z,101868.98
2019-03-09T19:40:14.032Z,101862.48
2019-03-09T19:42:43.366Z,101855.98
2019-03-09T19:45:13.687Z,101848.63
2019-03-09T19:47:43.047Z,101846.95
2019-03-09T19:50:14.461Z,101848.27
2019-03-09T19:52:43.791Z,101850.92
2019-03-09T19:55:13.267Z,101834.53
2019-03-09T19:57:42.735Z,101831.13
2019-03-09T20:00:12.995Z,101819.87
2019-03-09T20:02:42.349Z,101816.00
2019-03-09T20:05:12.071Z,101803.56
2019-03-09T20:07:41.608Z,101793.64
2019-03-09T20:10:11.866Z,101781.95
2019-03-09T20:12:41.194Z,101761.68
2019-03-09T20:15:11.897Z,101774.67
2019-03-09T20:17:41.230Z,101757.41
2019-03-09T20:20:11.454Z,101734.97
2019-03-09T20:22:40.799Z,101747.09
2019-03-09T20:25:10.266Z,101751.87
2019-03-09T20:27:39.578Z,101738.50
2019-03-09T20:30:09.524Z,101723.34
2019-03-09T20:32:38.863Z,101718.65
2019-03-09T20:35:08.421Z,101727.73
2019-03-09T20:37:37.802Z,101730.36
2019-03-09T20:40:07.995Z,101729.99
2019-03-09T20:42:37.342Z,101739.08
2019-03-09T20:45:09.163Z,101743.05
2019-03-09T20:47:38.492Z,101755.61
2019-03-09T20:50:09.162Z,101775.58
2019-03-09T20:52:38.467Z,101777.83
2019-03-09T20:55:10.548Z,101748.03
2019-03-09T20:57:39.877Z,101731.13
2019-03-09T21:00:14.183Z,101723.33
2019-03-09T21:02:43.517Z,101704.31
2019-03-09T21:05:12.884Z,101686.14
2019-03-09T21:07:42.231Z,101649.39
2019-03-09T21:10:12.669Z,101628.69
2019-03-09T21:13:04.816Z,101649.48
2019-03-09T21:15:34.187Z,101663.38
2019-03-09T21:18:03.520Z,101668.59
2019-03-09T21:20:32.850Z,101645.64
2019-03-09T21:23:02.165Z,101630.56
2019-03-09T21:25:31.481Z,101631.52
2019-03-09T21:28:00.833Z,101623.78
2019-03-09T21:30:30.185Z,101603.45
2019-03-09T21:32:59.534Z,101583.14
2019-03-09T21:35:28.848Z,101573.63
2019-03-09T21:37:58.198Z,101569.73
2019-03-09T21:40:27.528Z,101549.47
2019-03-09T21:42:56.915Z,101534.83
2019-03-09T21:45:26.241Z,101521.05
2019-03-09T21:47:55.562Z,101509.80
2019-03-09T21:50:24.934Z,101492.95
2019-03-09T21:52:54.269Z,101477.87
2019-03-09T21:55:23.597Z,101474.86
2019-03-09T21:57:52.939Z,101461.14
2019-03-09T22:00:22.345Z,101449.92
2019-03-09T22:02:51.667Z,101440.48
2019-03-09T22:05:21.218Z,101428.45
2019-03-09T22:07:51.544Z,101415.97
2019-03-09T22:10:20.875Z,101411.27
2019-03-09T22:12:50.223Z,101400.54
2019-03-09T22:15:19.569Z,101380.25
2019-03-09T22:17:48.910Z,101389.83
2019-03-09T22:20:20.452Z,101367.85
2019-03-09T22:22:49.263Z,101343.27
2019-03-09T22:25:18.625Z,101341.61
2019-03-09T22:27:47.948Z,101331.73
2019-03-09T22:30:17.314Z,101332.17
2019-03-09T22:32:46.686Z,101323.98
2019-03-09T22:35:16.061Z,101301.16
2019-03-09T22:37:45.402Z,101292.55
2019-03-09T22:40:14.762Z,101294.73
2019-03-09T22:42:44.161Z,101286.09
2019-03-09T22:45:13.497Z,101277.51
2019-03-09T22:47:42.847Z,101268.08
2019-03-09T22:50:13.263Z,101262.48
2019-03-09T22:52:42.687Z,101257.78
2019-03-09T22:55:12.424Z,101243.97
2019-03-09T22:57:41.737Z,101234.09
2019-03-09T23:00:14.077Z,101220.77
2019-03-09T23:02:44.977Z,101209.54
2019-03-09T23:05:14.801Z,101209.60
2019-03-09T23:07:44.178Z,101196.16
2019-03-09T23:10:15.080Z,101188.86
2019-03-09T23:12:44.506Z,101173.77
2019-03-09T23:15:14.899Z,101154.82
2019-03-09T23:17:44.823Z,101133.66
2019-03-09T23:20:15.074Z,101120.31
2019-03-09T23:22:44.482Z,101114.72
2019-03-09T23:25:15.146Z,101111.33
2019-03-09T23:27:45.439Z,101108.33
2019-03-09T23:30:16.007Z,101100.61
2019-03-09T23:32:45.378Z,101085.50
2019-03-09T23:35:15.259Z,101066.49
2019-03-09T23:37:45.001Z,101065.17
2019-03-09T23:40:14.867Z,101048.31
2019-03-09T23:42:44.225Z,101046.09
2019-03-09T23:45:14.293Z,101038.32
2019-03-09T23:47:43.653Z,101035.73
2019-03-09T23:50:14.208Z,101024.47
2019-03-09T23:52:43.776Z,101003.73
2019-03-09T23:55:22.032Z,100996.33
2019-03-09T23:57:45.149Z,101000.69
